Time;durP1;ratioP1;P1;durP2;ratioP2;P2;SDS_P1;SDS_P2;PMS_P1;PMS_P2;Temp;Humidity;BMP_temperature;BMP_pressure;BME280_temperature;BME280_humidity;BME280_pressure;Samples;Min_cycle;Max_cycle;Signal;HPM_P1;HPM_P2
2023/11/06 00:00:05;;;;;;;1.25;0.68;;;;;;;;;;5016334;28;20281;-89
2023/11/06 00:02:33;;;;;;;2.15;0.82;;;;;;;;;;5018302;28;20230;-88
2023/11/06 00:05:00;;;;;;;1.17;1.00;;;;;;;;;;5026021;28;20230;-89
2023/11/06 00:07:27;;;;;;;1.23;0.90;;;;;;;;;;5016670;28;20203;-87
2023/11/06 00:09:55;;;;;;;0.88;0.88;;;;;;;;;;5021454;28;20211;-87
2023/11/06 00:12:26;;;;;;;1.27;0.57;;;;;;;;;;5023764;28;20203;-86
2023/11/06 00:14:53;;;;;;;1.63;1.33;;;;;;;;;;5025736;28;20606;-87
2023/11/06 00:17:22;;;;;;;1.80;1.10;;;;;;;;;;5024322;28;20209;-87
2023/11/06 00:19:50;;;;;;;0.90;0.80;;;;;;;;;;5017477;28;20230;-86
2023/11/06 00:22:18;;;;;;;2.03;0.77;;;;;;;;;;5024092;28;20317;-88
2023/11/06 00:24:46;;;;;;;0.82;0.80;;;;;;;;;;5016319;28;20289;-88
2023/11/06 00:27:13;;;;;;;0.55;0.50;;;;;;;;;;5017793;28;20225;-87
2023/11/06 00:29:43;;;;;;;0.80;0.80;;;;;;;;;;5024110;28;20294;-88
2023/11/06 00:32:11;;;;;;;1.38;0.70;;;;;;;;;;5024869;28;20289;-88
2023/11/06 00:34:39;;;;;;;0.75;0.75;;;;;;;;;;5024237;28;20223;-88
2023/11/06 00:37:06;;;;;;;0.98;0.60;;;;;;;;;;5017562;28;20198;-85
2023/11/06 00:39:35;;;;;;;1.17;0.73;;;;;;;;;;5030040;28;20212;-86
2023/11/06 00:42:03;;;;;;;0.98;0.60;;;;;;;;;;5021042;28;20214;-86
2023/11/06 00:44:31;;;;;;;1.17;0.68;;;;;;;;;;5028049;28;20227;-86
2023/11/06 00:47:00;;;;;;;2.75;0.80;;;;;;;;;;5022554;28;20206;-86
2023/11/06 00:49:28;;;;;;;3.35;1.10;;;;;;;;;;5017100;28;20203;-86
2023/11/06 00:51:55;;;;;;;1.13;0.80;;;;;;;;;;5015530;28;20199;-88
2023/11/06 00:54:22;;;;;;;1.33;0.80;;;;;;;;;;5017050;28;20229;-86
2023/11/06 00:56:50;;;;;;;0.52;0.50;;;;;;;;;;5015505;28;20298;-86
2023/11/06 00:59:18;;;;;;;2.17;1.10;;;;;;;;;;5015383;28;20586;-86
2023/11/06 01:01:46;;;;;;;1.05;0.65;;;;;;;;;;5014859;28;20294;-88
2023/11/06 01:04:15;;;;;;;1.10;0.68;;;;;;;;;;5023322;28;20226;-86
2023/11/06 01:06:42;;;;;;;0.98;0.80;;;;;;;;;;5015832;28;20268;-87
2023/11/06 01:09:10;;;;;;;0.93;0.70;;;;;;;;;;5022842;28;20816;-87
2023/11/06 01:11:38;;;;;;;0.50;0.50;;;;;;;;;;5016852;28;20616;-88
2023/11/06 01:14:06;;;;;;;0.70;0.70;;;;;;;;;;5015005;28;20797;-88
2023/11/06 01:16:34;;;;;;;0.40;0.40;;;;;;;;;;5016760;28;20237;-87
2023/11/06 01:19:02;;;;;;;0.95;0.90;;;;;;;;;;5017793;28;20213;-86
2023/11/06 01:21:31;;;;;;;2.05;0.90;;;;;;;;;;5020396;28;20202;-87
2023/11/06 01:23:59;;;;;;;1.10;0.80;;;;;;;;;;5018613;28;20708;-87
2023/11/06 01:26:26;;;;;;;0.82;0.82;;;;;;;;;;5022440;28;20287;-87
2023/11/06 01:28:53;;;;;;;3.35;1.30;;;;;;;;;;5023162;28;20206;-86
2023/11/06 01:31:21;;;;;;;0.70;0.70;;;;;;;;;;5016515;28;20203;-87
2023/11/06 01:33:48;;;;;;;1.00;0.80;;;;;;;;;;5017000;28;20203;-88
2023/11/06 01:36:16;;;;;;;0.82;0.68;;;;;;;;;;5015962;28;20230;-86
2023/11/06 01:38:45;;;;;;;1.10;0.70;;;;;;;;;;5016666;28;20203;-87
2023/11/06 01:41:13;;;;;;;0.77;0.60;;;;;;;;;;5023355;28;20294;-87
2023/11/06 01:43:40;;;;;;;2.53;0.85;;;;;;;;;;5020797;28;20222;-87
2023/11/06 01:46:10;;;;;;;0.80;0.80;;;;;;;;;;5016292;28;20601;-87
2023/11/06 01:48:39;;;;;;;0.75;0.70;;;;;;;;;;5016269;28;20208;-86
2023/11/06 01:51:07;;;;;;;1.65;0.85;;;;;;;;;;5015729;28;20695;-86
2023/11/06 01:53:35;;;;;;;1.38;0.70;;;;;;;;;;5014400;28;20195;-87
2023/11/06 01:56:04;;;;;;;0.98;0.98;;;;;;;;;;5021146;28;20237;-86
2023/11/06 01:58:32;;;;;;;0.70;0.70;;;;;;;;;;5012915;28;20297;-87
2023/11/06 02:01:00;;;;;;;4.05;0.90;;;;;;;;;;5015248;28;20253;-87
2023/11/06 02:03:27;;;;;;;1.10;0.93;;;;;;;;;;5015526;28;20229;-87
2023/11/06 02:05:56;;;;;;;1.05;0.90;;;;;;;;;;5020581;28;20226;-88
2023/11/06 02:08:23;;;;;;;0.98;0.75;;;;;;;;;;5015705;28;20203;-88
2023/11/06 02:10:51;;;;;;;1.52;0.82;;;;;;;;;;5016822;28;20692;-87
2023/11/06 02:13:22;;;;;;;2.53;0.60;;;;;;;;;;5015649;28;20206;-87
2023/11/06 02:15:51;;;;;;;0.85;0.80;;;;;;;;;;5017190;28;20305;-88
2023/11/06 02:18:18;;;;;;;0.85;0.70;;;;;;;;;;5028286;28;20228;-87
2023/11/06 02:20:46;;;;;;;1.00;0.90;;;;;;;;;;5024137;28;20289;-86
2023/11/06 02:23:15;;;;;;;0.68;0.68;;;;;;;;;;5015785;28;20228;-87
2023/11/06 02:25:42;;;;;;;1.00;0.82;;;;;;;;;;5020406;28;20229;-85
2023/11/06 02:28:10;;;;;;;0.88;0.73;;;;;;;;;;5023092;28;20735;-87
2023/11/06 02:30:40;;;;;;;0.50;0.50;;;;;;;;;;5013924;28;20199;-88
2023/11/06 02:33:07;;;;;;;0.70;0.70;;;;;;;;;;5014853;28;20674;-87
2023/11/06 02:35:34;;;;;;;1.20;0.90;;;;;;;;;;5014568;28;20720;-87
2023/11/06 02:38:02;;;;;;;0.88;0.88;;;;;;;;;;5013665;28;20206;-88
2023/11/06 02:40:31;;;;;;;0.93;0.90;;;;;;;;;;5015047;28;20207;-86
2023/11/06 02:42:58;;;;;;;1.50;0.90;;;;;;;;;;5017023;28;20251;-85
2023/11/06 02:45:26;;;;;;;2.80;1.30;;;;;;;;;;5024139;28;20277;-87
2023/11/06 02:47:53;;;;;;;1.02;0.88;;;;;;;;;;5031358;28;20735;-87
2023/11/06 02:50:21;;;;;;;1.25;0.93;;;;;;;;;;5029034;28;20699;-86
2023/11/06 02:52:49;;;;;;;1.08;0.90;;;;;;;;;;5013640;28;20203;-87
2023/11/06 02:55:17;;;;;;;0.80;0.80;;;;;;;;;;5028324;28;20596;-87
2023/11/06 02:57:46;;;;;;;0.95;0.80;;;;;;;;;;5019385;28;20309;-87
2023/11/06 03:00:15;;;;;;;1.40;0.70;;;;;;;;;;5012421;28;20230;-86
2023/11/06 03:02:42;;;;;;;1.48;0.90;;;;;;;;;;5021978;28;20213;-88
2023/11/06 03:05:11;;;;;;;0.98;0.90;;;;;;;;;;5013494;28;20236;-87
2023/11/06 03:07:38;;;;;;;1.13;0.70;;;;;;;;;;5014118;28;20210;-86
2023/11/06 03:10:08;;;;;;;0.82;0.75;;;;;;;;;;5024740;28;20208;-86
2023/11/06 03:12:35;;;;;;;0.80;0.80;;;;;;;;;;5025700;28;20256;-88
2023/11/06 03:15:06;;;;;;;0.77;0.63;;;;;;;;;;5025723;28;20237;-86
2023/11/06 03:17:34;;;;;;;1.95;0.70;;;;;;;;;;5015472;28;20207;-87
2023/11/06 03:20:05;;;;;;;2.35;1.08;;;;;;;;;;5015734;28;20235;-87
2023/11/06 03:22:33;;;;;;;1.50;0.88;;;;;;;;;;5012461;28;20277;-87
2023/11/06 03:25:00;;;;;;;0.68;0.68;;;;;;;;;;5015289;28;20241;-86
2023/11/06 03:27:28;;;;;;;1.13;0.80;;;;;;;;;;5021995;28;20289;-86
2023/11/06 03:29:55;;;;;;;1.20;1.00;;;;;;;;;;5022498;28;20293;-86
2023/11/06 03:32:24;;;;;;;1.67;1.00;;;;;;;;;;5028749;28;20305;-86
2023/11/06 03:34:51;;;;;;;2.35;1.00;;;;;;;;;;5038005;28;20234;-85
2023/11/06 03:37:19;;;;;;;1.00;0.88;;;;;;;;;;5032749;28;20195;-87
2023/11/06 03:39:46;;;;;;;0.85;0.80;;;;;;;;;;5027014;28;20207;-87
2023/11/06 03:42:14;;;;;;;2.05;0.90;;;;;;;;;;5014671;28;20291;-86
2023/11/06 03:44:41;;;;;;;1.73;0.80;;;;;;;;;;5013269;28;20679;-87
2023/11/06 03:47:09;;;;;;;2.42;0.70;;;;;;;;;;5014755;28;20281;-86
2023/11/06 03:49:39;;;;;;;1.55;0.80;;;;;;;;;;5020732;28;20265;-88
2023/11/06 03:52:10;;;;;;;1.30;1.10;;;;;;;;;;5014181;28;20212;-86
2023/11/06 03:54:38;;;;;;;2.35;0.95;;;;;;;;;;5011972;28;20223;-87
2023/11/06 03:57:06;;;;;;;2.03;1.65;;;;;;;;;;5013790;28;20199;-86
2023/11/06 03:59:33;;;;;;;1.33;0.85;;;;;;;;;;5028442;28;20289;-88
2023/11/06 04:02:01;;;;;;;2.10;0.95;;;;;;;;;;5036172;28;20293;-86
2023/11/06 04:04:28;;;;;;;1.65;0.90;;;;;;;;;;5026619;28;20609;-87
2023/11/06 04:06:57;;;;;;;0.63;0.63;;;;;;;;;;5023020;28;20298;-87
2023/11/06 04:09:25;;;;;;;0.50;0.50;;;;;;;;;;5016349;28;20231;-87
2023/11/06 04:11:53;;;;;;;0.70;0.70;;;;;;;;;;5017935;28;20586;-85
2023/11/06 04:14:20;;;;;;;0.90;0.90;;;;;;;;;;5023985;28;20674;-87
2023/11/06 04:16:48;;;;;;;0.52;0.52;;;;;;;;;;5023255;28;20205;-86
2023/11/06 04:19:15;;;;;;;0.65;0.65;;;;;;;;;;5021356;28;20558;-87
2023/11/06 04:21:43;;;;;;;2.92;1.00;;;;;;;;;;5027924;28;20202;-87
2023/11/06 04:24:12;;;;;;;1.02;0.80;;;;;;;;;;5026318;28;20607;-87
2023/11/06 04:26:40;;;;;;;0.80;0.80;;;;;;;;;;5034754;28;20198;-87
2023/11/06 04:29:07;;;;;;;1.52;0.95;;;;;;;;;;5017922;28;20759;-87
2023/11/06 04:31:35;;;;;;;1.75;1.10;;;;;;;;;;5021384;28;20297;-87
2023/11/06 04:34:02;;;;;;;3.40;0.70;;;;;;;;;;5017743;28;20205;-86
2023/11/06 04:36:30;;;;;;;1.40;0.65;;;;;;;;;;5022440;28;20207;-87
2023/11/06 04:38:57;;;;;;;1.17;1.08;;;;;;;;;;5015976;28;20286;-85
2023/11/06 04:41:26;;;;;;;1.25;0.77;;;;;;;;;;5021354;28;20639;-87
2023/11/06 04:43:53;;;;;;;1.75;0.80;;;;;;;;;;5015760;28;20202;-88
2023/11/06 04:46:21;;;;;;;0.77;0.77;;;;;;;;;;5022568;28;20294;-88
2023/11/06 04:48:48;;;;;;;0.57;0.57;;;;;;;;;;5015958;28;20203;-87
2023/11/06 04:51:16;;;;;;;2.05;0.93;;;;;;;;;;5026424;28;20289;-88
2023/11/06 04:53:44;;;;;;;0.60;0.60;;;;;;;;;;5025958;28;20206;-88
2023/11/06 04:56:12;;;;;;;0.85;0.73;;;;;;;;;;5022143;28;20191;-87
2023/11/06 04:58:40;;;;;;;2.17;0.70;;;;;;;;;;5016010;28;20234;-87
2023/11/06 05:01:08;;;;;;;0.60;0.60;;;;;;;;;;5014373;28;20578;-87
2023/11/06 05:03:36;;;;;;;0.82;0.50;;;;;;;;;;5013261;28;20249;-86
2023/11/06 05:06:04;;;;;;;1.30;1.20;;;;;;;;;;5014582;28;20664;-87
2023/11/06 05:08:33;;;;;;;0.93;0.73;;;;;;;;;;5014182;28;20210;-87
2023/11/06 05:11:00;;;;;;;0.68;0.63;;;;;;;;;;5020324;28;20214;-88
2023/11/06 05:13:28;;;;;;;0.98;0.88;;;;;;;;;;5018042;28;20299;-87
2023/11/06 05:15:56;;;;;;;0.60;0.60;;;;;;;;;;5022663;28;20305;-88
2023/11/06 05:18:24;;;;;;;1.15;0.60;;;;;;;;;;5014595;28;20297;-89
2023/11/06 05:20:51;;;;;;;0.77;0.50;;;;;;;;;;5014398;28;20206;-87
2023/11/06 05:23:19;;;;;;;0.60;0.60;;;;;;;;;;5013671;28;20201;-87
2023/11/06 05:25:48;;;;;;;1.08;0.50;;;;;;;;;;5019937;28;20320;-88
2023/11/06 05:28:15;;;;;;;0.80;0.80;;;;;;;;;;5015169;28;20211;-89
2023/11/06 05:30:43;;;;;;;1.25;1.05;;;;;;;;;;5018243;28;20299;-86
2023/11/06 05:33:12;;;;;;;0.52;0.52;;;;;;;;;;5030173;28;20286;-87
2023/11/06 05:35:39;;;;;;;0.80;0.70;;;;;;;;;;5026137;28;20273;-86
2023/11/06 05:38:07;;;;;;;0.43;0.40;;;;;;;;;;5024938;28;20645;-86
2023/11/06 05:40:35;;;;;;;0.50;0.50;;;;;;;;;;5015924;28;20620;-86
2023/11/06 05:43:03;;;;;;;0.73;0.40;;;;;;;;;;5022890;28;20209;-88
2023/11/06 05:45:30;;;;;;;0.40;0.40;;;;;;;;;;5026130;28;20280;-89
2023/11/06 05:47:58;;;;;;;0.60;0.60;;;;;;;;;;5015078;28;20210;-88
2023/11/06 05:50:27;;;;;;;0.63;0.50;;;;;;;;;;5014376;28;20298;-86
2023/11/06 05:52:54;;;;;;;0.40;0.40;;;;;;;;;;5014380;28;20293;-87
2023/11/06 05:55:21;;;;;;;0.30;0.30;;;;;;;;;;5020877;28;20269;-88
2023/11/06 05:57:49;;;;;;;0.60;0.60;;;;;;;;;;5013175;28;20202;-87
2023/11/06 06:00:18;;;;;;;0.57;0.40;;;;;;;;;;5021421;28;20743;-87
2023/11/06 06:02:46;;;;;;;0.70;0.70;;;;;;;;;;5022350;28;20213;-86
2023/11/06 06:05:13;;;;;;;0.52;0.52;;;;;;;;;;5013247;28;20313;-86
2023/11/06 06:07:43;;;;;;;0.50;0.50;;;;;;;;;;5014152;28;20213;-88
2023/11/06 06:10:12;;;;;;;1.55;0.50;;;;;;;;;;5017149;28;20202;-87
2023/11/06 06:12:41;;;;;;;3.00;0.70;;;;;;;;;;5018126;28;20199;-88
2023/11/06 06:15:10;;;;;;;0.50;0.50;;;;;;;;;;5014737;28;20214;-87
2023/11/06 06:17:39;;;;;;;0.55;0.55;;;;;;;;;;5014057;28;20211;-87
2023/11/06 06:20:11;;;;;;;0.80;0.73;;;;;;;;;;5014546;28;20202;-87
2023/11/06 06:22:38;;;;;;;0.63;0.50;;;;;;;;;;5026652;28;20297;-88
2023/11/06 06:25:08;;;;;;;0.60;0.50;;;;;;;;;;5022369;28;20245;-88
2023/11/06 06:27:37;;;;;;;0.77;0.70;;;;;;;;;;5013161;28;20207;-87
2023/11/06 06:30:06;;;;;;;1.02;0.80;;;;;;;;;;5015045;28;20234;-86
2023/11/06 06:32:34;;;;;;;0.47;0.45;;;;;;;;;;5013625;28;20631;-87
2023/11/06 06:35:02;;;;;;;0.40;0.40;;;;;;;;;;5014368;28;20225;-86
2023/11/06 06:37:30;;;;;;;0.45;0.40;;;;;;;;;;5014725;28;20560;-86
2023/11/06 06:39:57;;;;;;;1.85;0.85;;;;;;;;;;5027645;28;20253;-88
2023/11/06 06:42:26;;;;;;;0.85;0.50;;;;;;;;;;5027665;28;20198;-87
2023/11/06 06:44:54;;;;;;;0.50;0.50;;;;;;;;;;5014313;28;20225;-87
2023/11/06 06:47:21;;;;;;;0.55;0.50;;;;;;;;;;5013551;28;20226;-86
2023/11/06 06:49:49;;;;;;;0.50;0.40;;;;;;;;;;5020298;28;20253;-86
2023/11/06 06:52:16;;;;;;;0.70;0.70;;;;;;;;;;5021061;28;20234;-86
2023/11/06 06:54:44;;;;;;;0.65;0.47;;;;;;;;;;5013915;28;20222;-87
2023/11/06 06:57:12;;;;;;;0.85;0.50;;;;;;;;;;5016961;28;20222;-88
2023/11/06 06:59:41;;;;;;;0.30;0.30;;;;;;;;;;5018738;28;20203;-86
2023/11/06 07:02:08;;;;;;;0.60;0.50;;;;;;;;;;5016715;28;20285;-86
2023/11/06 07:04:37;;;;;;;0.80;0.80;;;;;;;;;;5018240;28;20254;-87
2023/11/06 07:07:06;;;;;;;0.73;0.57;;;;;;;;;;5016247;28;20230;-88
2023/11/06 07:09:33;;;;;;;0.40;0.40;;;;;;;;;;5027368;28;20205;-87
2023/11/06 07:12:02;;;;;;;0.80;0.80;;;;;;;;;;5021786;28;20686;-87
2023/11/06 07:14:30;;;;;;;0.73;0.70;;;;;;;;;;5014071;28;20227;-86
2023/11/06 07:17:03;;;;;;;0.52;0.52;;;;;;;;;;5014616;28;20207;-86
2023/11/06 07:19:31;;;;;;;1.02;0.68;;;;;;;;;;5025013;28;20332;-85
2023/11/06 07:21:59;;;;;;;0.80;0.80;;;;;;;;;;5023666;28;20214;-87
2023/11/06 07:24:27;;;;;;;0.90;0.60;;;;;;;;;;5017886;28;20767;-86
2023/11/06 07:26:56;;;;;;;0.40;0.40;;;;;;;;;;5023556;28;20271;-86
2023/11/06 07:29:24;;;;;;;0.63;0.60;;;;;;;;;;5021930;28;20557;-88
2023/11/06 07:31:52;;;;;;;0.80;0.70;;;;;;;;;;5013089;28;20199;-87
2023/11/06 07:34:21;;;;;;;0.70;0.70;;;;;;;;;;5030108;28;20226;-86
2023/11/06 07:36:49;;;;;;;0.43;0.43;;;;;;;;;;5017341;28;20285;-86
2023/11/06 07:39:17;;;;;;;1.13;0.90;;;;;;;;;;5016761;28;20199;-88
2023/11/06 07:41:45;;;;;;;0.60;0.60;;;;;;;;;;5024441;28;20203;-86
2023/11/06 07:44:12;;;;;;;1.55;1.13;;;;;;;;;;5024858;28;20250;-87
2023/11/06 07:46:40;;;;;;;0.98;0.60;;;;;;;;;;5017522;28;20613;-86
2023/11/06 07:49:07;;;;;;;1.20;0.60;;;;;;;;;;5025479;28;20203;-86
2023/11/06 07:51:36;;;;;;;0.68;0.68;;;;;;;;;;5022580;28;20737;-87
2023/11/06 07:54:04;;;;;;;0.63;0.60;;;;;;;;;;5026153;28;20286;-86
2023/11/06 07:56:32;;;;;;;0.60;0.60;;;;;;;;;;5021995;28;20202;-88
2023/11/06 07:59:02;;;;;;;1.48;1.23;;;;;;;;;;5029940;28;20298;-86
2023/11/06 08:01:30;;;;;;;1.33;1.13;;;;;;;;;;5038264;28;20206;-88
2023/11/06 08:03:57;;;;;;;1.08;0.95;;;;;;;;;;5038158;28;20244;-87
2023/11/06 08:06:25;;;;;;;0.63;0.52;;;;;;;;;;5024084;28;20226;-88
2023/11/06 08:08:54;;;;;;;1.17;1.08;;;;;;;;;;5029612;28;20199;-85
2023/11/06 08:11:23;;;;;;;2.45;1.02;;;;;;;;;;5025843;28;20232;-85
2023/11/06 08:13:50;;;;;;;0.70;0.70;;;;;;;;;;5025668;28;20258;-86
2023/11/06 08:16:18;;;;;;;5.43;1.48;;;;;;;;;;5037015;28;20199;-87
2023/11/06 08:18:46;;;;;;;2.55;1.30;;;;;;;;;;5042931;28;20202;-86
2023/11/06 08:21:14;;;;;;;2.50;1.00;;;;;;;;;;5036631;28;20201;-86
2023/11/06 08:23:41;;;;;;;0.63;0.60;;;;;;;;;;5034907;28;20199;-85
2023/11/06 08:26:10;;;;;;;1.73;0.82;;;;;;;;;;5044507;28;20269;-86
2023/11/06 08:28:40;;;;;;;3.83;1.30;;;;;;;;;;5036294;28;20215;-86
2023/11/06 08:31:09;;;;;;;2.03;0.82;;;;;;;;;;5034141;28;20199;-87
2023/11/06 08:33:36;;;;;;;3.67;1.30;;;;;;;;;;5036000;28;20226;-84
2023/11/06 08:36:05;;;;;;;2.47;1.10;;;;;;;;;;5036982;28;20261;-86
2023/11/06 08:38:32;;;;;;;1.30;1.20;;;;;;;;;;5048371;28;20244;-85
2023/11/06 08:41:00;;;;;;;2.67;1.45;;;;;;;;;;5040001;28;20226;-87
2023/11/06 08:43:31;;;;;;;3.15;1.33;;;;;;;;;;5027780;28;20693;-88
2023/11/06 08:46:00;;;;;;;1.60;1.30;;;;;;;;;;5035045;28;20270;-85
2023/11/06 08:48:28;;;;;;;3.47;1.15;;;;;;;;;;5036404;28;20203;-86
2023/11/06 08:50:55;;;;;;;2.65;1.10;;;;;;;;;;5035729;28;20199;-85
2023/11/06 08:53:23;;;;;;;3.33;1.48;;;;;;;;;;5022588;28;20317;-86
2023/11/06 08:55:51;;;;;;;2.85;1.27;;;;;;;;;;5027667;28;20226;-86
2023/11/06 08:58:19;;;;;;;2.78;1.17;;;;;;;;;;5026722;28;20286;-85
2023/11/06 09:00:48;;;;;;;2.35;1.27;;;;;;;;;;5026649;28;20222;-87
2023/11/06 09:03:16;;;;;;;3.78;1.40;;;;;;;;;;5018910;28;20199;-86
2023/11/06 09:05:44;;;;;;;2.72;1.20;;;;;;;;;;5018797;28;20222;-86
2023/11/06 09:08:11;;;;;;;2.90;1.20;;;;;;;;;;5029744;28;20602;-86
2023/11/06 09:10:40;;;;;;;4.55;1.35;;;;;;;;;;5023238;28;20203;-87
2023/11/06 09:13:07;;;;;;;1.98;1.10;;;;;;;;;;5019286;28;20254;-86
2023/11/06 09:15:38;;;;;;;2.58;1.42;;;;;;;;;;5024734;28;20222;-86
2023/11/06 09:18:07;;;;;;;4.65;1.35;;;;;;;;;;5020753;28;20279;-87
2023/11/06 09:20:35;;;;;;;2.38;0.88;;;;;;;;;;5019339;28;20213;-85
2023/11/06 09:23:02;;;;;;;1.17;0.95;;;;;;;;;;5018283;28;20210;-86
2023/11/06 09:25:30;;;;;;;3.05;1.20;;;;;;;;;;5022784;28;20226;-87
2023/11/06 09:27:57;;;;;;;6.22;1.48;;;;;;;;;;5024796;28;20310;-86
2023/11/06 09:30:25;;;;;;;1.30;0.90;;;;;;;;;;5019250;28;20294;-87
2023/11/06 09:32:53;;;;;;;2.50;1.23;;;;;;;;;;5025466;28;20293;-85
2023/11/06 09:35:23;;;;;;;7.18;2.40;;;;;;;;;;5020732;28;20306;-88
2023/11/06 09:37:50;;;;;;;3.03;1.23;;;;;;;;;;5036700;28;20206;-86
2023/11/06 09:40:22;;;;;;;3.30;1.42;;;;;;;;;;5018498;28;20207;-86
2023/11/06 09:42:50;;;;;;;2.40;1.35;;;;;;;;;;5016898;28;20211;-85
2023/11/06 09:45:18;;;;;;;4.18;1.52;;;;;;;;;;5019996;28;20287;-87
2023/11/06 09:47:51;;;;;;;3.13;1.85;;;;;;;;;;5022051;28;20311;-85
2023/11/06 09:50:23;;;;;;;1.45;1.02;;;;;;;;;;5018158;28;20627;-85
2023/11/06 09:52:53;;;;;;;2.05;1.10;;;;;;;;;;5015380;28;20417;-85
2023/11/06 09:55:21;;;;;;;7.60;2.50;;;;;;;;;;5020558;28;20644;-85
2023/11/06 09:57:51;;;;;;;1.42;1.05;;;;;;;;;;5019332;28;20231;-85
2023/11/06 10:00:20;;;;;;;1.60;1.08;;;;;;;;;;5023646;28;20223;-86
2023/11/06 10:02:51;;;;;;;3.08;1.27;;;;;;;;;;5016012;28;20199;-87
2023/11/06 10:05:20;;;;;;;2.83;1.20;;;;;;;;;;5014958;28;20230;-86
2023/11/06 10:07:52;;;;;;;2.85;1.08;;;;;;;;;;5022697;28;20249;-88
2023/11/06 10:10:22;;;;;;;3.33;1.20;;;;;;;;;;5025958;28;20206;-87
2023/11/06 10:13:03;;;;;;;2.72;1.27;;;;;;;;;;5022955;28;20257;-86
2023/11/06 10:15:31;;;;;;;2.85;1.10;;;;;;;;;;5014369;28;20317;-86
2023/11/06 10:18:12;;;;;;;2.45;1.45;;;;;;;;;;5015344;28;20195;-86
2023/11/06 10:20:44;;;;;;;2.40;1.30;;;;;;;;;;5014969;28;20732;-87
2023/11/06 10:23:13;;;;;;;4.50;1.10;;;;;;;;;;5015690;28;20833;-87
2023/11/06 10:25:42;;;;;;;1.35;0.93;;;;;;;;;;5014925;28;20222;-85
2023/11/06 10:28:20;;;;;;;3.58;1.23;;;;;;;;;;5021900;28;20218;-86
2023/11/06 10:30:49;;;;;;;1.65;0.88;;;;;;;;;;5013246;28;20206;-88
2023/11/06 10:33:17;;;;;;;3.65;1.63;;;;;;;;;;5021371;28;20732;-87
2023/11/06 10:35:45;;;;;;;2.80;1.50;;;;;;;;;;5031039;28;20598;-88
2023/11/06 10:38:33;;;;;;;1.10;1.00;;;;;;;;;;5015778;28;20198;-87
2023/11/06 10:41:01;;;;;;;3.53;1.80;;;;;;;;;;5015178;28;20290;-87
2023/11/06 10:43:30;;;;;;;1.95;1.20;;;;;;;;;;5021197;28;20366;-87
2023/11/06 10:45:59;;;;;;;2.78;0.98;;;;;;;;;;5020470;28;20707;-87
2023/11/06 10:48:34;;;;;;;4.03;1.38;;;;;;;;;;5020888;28;20223;-87
2023/11/06 10:51:02;;;;;;;2.10;1.25;;;;;;;;;;5021102;28;20209;-88
2023/11/06 10:53:33;;;;;;;1.10;0.80;;;;;;;;;;5026197;28;20306;-86
2023/11/06 10:56:03;;;;;;;2.05;1.00;;;;;;;;;;5014959;28;20229;-87
2023/11/06 10:58:31;;;;;;;8.05;1.33;;;;;;;;;;5025015;28;20207;-87
2023/11/06 11:01:00;;;;;;;2.95;1.00;;;;;;;;;;5013897;28;20227;-86
2023/11/06 11:03:31;;;;;;;1.73;1.15;;;;;;;;;;5019786;28;20213;-88
2023/11/06 11:05:59;;;;;;;2.53;1.17;;;;;;;;;;5012857;28;20226;-88
2023/11/06 11:08:27;;;;;;;3.80;1.25;;;;;;;;;;5019148;28;20700;-87
2023/11/06 11:10:57;;;;;;;1.83;1.05;;;;;;;;;;5028231;28;20198;-87
2023/11/06 11:13:24;;;;;;;2.38;1.40;;;;;;;;;;5016725;28;20202;-88
2023/11/06 11:15:52;;;;;;;1.58;1.00;;;;;;;;;;5017359;28;20229;-87
2023/11/06 11:18:30;;;;;;;1.65;1.00;;;;;;;;;;5016307;28;20203;-87
2023/11/06 11:21:01;;;;;;;4.47;2.20;;;;;;;;;;5016172;28;20631;-87
2023/11/06 11:23:42;;;;;;;2.22;1.40;;;;;;;;;;5021290;28;20228;-86
2023/11/06 11:26:11;;;;;;;2.17;1.23;;;;;;;;;;5017006;28;20306;-86
2023/11/06 11:28:57;;;;;;;1.33;1.10;;;;;;;;;;5015848;28;20234;-86
2023/11/06 11:31:35;;;;;;;2.28;1.10;;;;;;;;;;5015908;28;20209;-85
2023/11/06 11:34:03;;;;;;;3.22;1.33;;;;;;;;;;5016158;28;20358;-86
2023/11/06 11:36:32;;;;;;;3.85;1.42;;;;;;;;;;5016073;28;20203;-86
2023/11/06 11:39:01;;;;;;;3.63;1.08;;;;;;;;;;5015946;28;20213;-86
2023/11/06 11:41:30;;;;;;;0.98;0.90;;;;;;;;;;5016674;28;20209;-87
2023/11/06 11:44:09;;;;;;;3.63;1.40;;;;;;;;;;5032366;28;20538;-87
2023/11/06 11:46:55;;;;;;;1.60;0.77;;;;;;;;;;5036508;28;20206;-86
2023/11/06 11:49:47;;;;;;;2.58;1.00;;;;;;;;;;5035402;28;20589;-87
2023/11/06 11:52:17;;;;;;;2.60;1.00;;;;;;;;;;5024421;28;20518;-86
2023/11/06 11:54:45;;;;;;;2.90;1.10;;;;;;;;;;5024291;28;20663;-87
2023/11/06 11:57:14;;;;;;;4.28;1.40;;;;;;;;;;5034659;28;20206;-86
2023/11/06 11:59:43;;;;;;;2.55;1.30;;;;;;;;;;5035316;28;20244;-85
2023/11/06 12:02:31;;;;;;;1.92;1.13;;;;;;;;;;5035450;28;20248;-87
2023/11/06 12:05:00;;;;;;;2.95;1.10;;;;;;;;;;5034086;28;20256;-86
2023/11/06 12:07:31;;;;;;;1.45;1.10;;;;;;;;;;5029200;28;20199;-87
2023/11/06 12:09:59;;;;;;;2.55;1.35;;;;;;;;;;5035648;28;20257;-86
2023/11/06 12:12:30;;;;;;;2.97;1.38;;;;;;;;;;5030568;28;20226;-88
2023/11/06 12:15:00;;;;;;;2.70;1.55;;;;;;;;;;5035644;28;20286;-86
2023/11/06 12:17:33;;;;;;;1.20;0.90;;;;;;;;;;5030899;28;20203;-86
2023/11/06 12:20:03;;;;;;;1.50;0.93;;;;;;;;;;5033154;28;20199;-85
2023/11/06 12:22:31;;;;;;;0.90;0.80;;;;;;;;;;5035492;28;20590;-86
2023/11/06 12:25:00;;;;;;;1.52;0.70;;;;;;;;;;5034729;28;20232;-86
2023/11/06 12:27:35;;;;;;;1.20;1.00;;;;;;;;;;5035383;28;20289;-86
2023/11/06 12:30:06;;;;;;;1.90;1.00;;;;;;;;;;5033839;28;20310;-86
2023/11/06 12:32:35;;;;;;;3.75;1.42;;;;;;;;;;5029241;28;20217;-86
2023/11/06 12:35:14;;;;;;;2.75;1.17;;;;;;;;;;5034957;28;20230;-86
2023/11/06 12:37:52;;;;;;;1.30;1.17;;;;;;;;;;5035771;28;20226;-85
2023/11/06 12:40:24;;;;;;;1.85;1.10;;;;;;;;;;5032452;28;20242;-86
2023/11/06 12:42:53;;;;;;;1.10;1.00;;;;;;;;;;5031912;28;20217;-87
2023/11/06 12:45:30;;;;;;;2.38;1.15;;;;;;;;;;5024078;28;20598;-87
2023/11/06 12:48:23;;;;;;;1.75;1.25;;;;;;;;;;5034242;28;20252;-87
2023/11/06 12:51:03;;;;;;;1.60;0.90;;;;;;;;;;5034494;28;20229;-87
2023/11/06 12:53:31;;;;;;;2.75;1.63;;;;;;;;;;5020284;28;20229;-86
2023/11/06 12:55:59;;;;;;;3.30;1.33;;;;;;;;;;5017499;28;20302;-88
2023/11/06 12:58:30;;;;;;;0.98;0.90;;;;;;;;;;5015605;28;20575;-86
2023/11/06 13:01:02;;;;;;;1.10;1.00;;;;;;;;;;5016556;28;20278;-87
2023/11/06 13:03:30;;;;;;;1.73;1.15;;;;;;;;;;5015845;28;20217;-86
2023/11/06 13:05:59;;;;;;;2.13;0.82;;;;;;;;;;5032326;28;20242;-86
2023/11/06 13:08:28;;;;;;;2.55;1.27;;;;;;;;;;5034865;28;20195;-86
2023/11/06 13:10:58;;;;;;;1.15;0.80;;;;;;;;;;5035088;28;20244;-86
2023/11/06 13:13:26;;;;;;;2.15;0.93;;;;;;;;;;5035172;28;20198;-86
2023/11/06 13:15:56;;;;;;;1.20;0.90;;;;;;;;;;5039314;28;20214;-86
2023/11/06 13:18:27;;;;;;;1.42;0.82;;;;;;;;;;5033015;28;20298;-87
2023/11/06 13:20:56;;;;;;;2.40;1.20;;;;;;;;;;5028271;28;20255;-85
2023/11/06 13:23:24;;;;;;;2.63;1.30;;;;;;;;;;5036639;28;20657;-85
2023/11/06 13:25:53;;;;;;;2.05;1.00;;;;;;;;;;5033988;28;20238;-86
2023/11/06 13:28:21;;;;;;;2.47;1.08;;;;;;;;;;5026276;28;20198;-85
2023/11/06 13:30:49;;;;;;;2.22;1.17;;;;;;;;;;5033195;28;20221;-86
2023/11/06 13:33:18;;;;;;;1.30;0.90;;;;;;;;;;5025382;28;20217;-86
2023/11/06 13:35:47;;;;;;;1.45;1.30;;;;;;;;;;5033948;28;20228;-87
2023/11/06 13:38:14;;;;;;;2.00;1.00;;;;;;;;;;5033024;28;20207;-88
2023/11/06 13:40:43;;;;;;;1.15;0.90;;;;;;;;;;5033792;28;20202;-87
2023/11/06 13:43:11;;;;;;;2.58;0.80;;;;;;;;;;5033336;28;20224;-86
2023/11/06 13:45:41;;;;;;;2.22;1.10;;;;;;;;;;5033725;28;20227;-86
2023/11/06 13:48:10;;;;;;;1.65;1.00;;;;;;;;;;5032983;28;20203;-86
2023/11/06 13:50:46;;;;;;;1.88;0.90;;;;;;;;;;5033039;28;20232;-86
2023/11/06 13:53:14;;;;;;;1.95;1.08;;;;;;;;;;5014812;28;20676;-86
2023/11/06 13:55:48;;;;;;;1.58;1.25;;;;;;;;;;5013207;28;20614;-86
2023/11/06 13:58:16;;;;;;;3.90;1.40;;;;;;;;;;5014056;28;20214;-85
2023/11/06 14:00:46;;;;;;;1.33;0.80;;;;;;;;;;5014058;28;20660;-85
2023/11/06 14:03:15;;;;;;;1.85;0.95;;;;;;;;;;5032382;28;20223;-85
2023/11/06 14:05:45;;;;;;;2.00;1.45;;;;;;;;;;5026716;28;20226;-86
2023/11/06 14:08:18;;;;;;;2.22;0.82;;;;;;;;;;5024309;28;20302;-84
2023/11/06 14:10:46;;;;;;;6.60;0.98;;;;;;;;;;5032974;28;20691;-87
2023/11/06 14:13:18;;;;;;;2.85;1.20;;;;;;;;;;5032708;28;20585;-87
2023/11/06 14:15:50;;;;;;;1.10;0.88;;;;;;;;;;5025085;28;20215;-87
2023/11/06 14:18:19;;;;;;;4.85;1.40;;;;;;;;;;5032195;28;20205;-86
2023/11/06 14:20:50;;;;;;;2.50;1.20;;;;;;;;;;5033658;28;20285;-87
2023/11/06 14:23:18;;;;;;;2.63;1.25;;;;;;;;;;5022484;28;20210;-86
2023/11/06 14:25:45;;;;;;;1.83;1.10;;;;;;;;;;5028342;28;20313;-85
2023/11/06 14:28:14;;;;;;;2.50;1.38;;;;;;;;;;5014356;28;20254;-87
2023/11/06 14:30:42;;;;;;;4.10;1.33;;;;;;;;;;5022018;28;20215;-87
2023/11/06 14:33:10;;;;;;;1.45;1.23;;;;;;;;;;5031228;28;20206;-85
2023/11/06 14:35:37;;;;;;;1.20;0.93;;;;;;;;;;5025491;28;20317;-87
2023/11/06 14:38:09;;;;;;;3.10;1.20;;;;;;;;;;5017317;28;20210;-87
2023/11/06 14:40:37;;;;;;;1.58;1.02;;;;;;;;;;5033287;28;20198;-86
2023/11/06 14:43:07;;;;;;;1.70;1.10;;;;;;;;;;5024139;28;20290;-87
2023/11/06 14:45:34;;;;;;;1.02;0.90;;;;;;;;;;5032794;28;20226;-86
2023/11/06 14:48:03;;;;;;;0.93;0.80;;;;;;;;;;5024921;28;20200;-88
2023/11/06 14:50:31;;;;;;;2.30;1.05;;;;;;;;;;5031885;28;20222;-86
2023/11/06 14:52:59;;;;;;;2.20;1.15;;;;;;;;;;5032249;28;20233;-86